Skip Navigation Links Skip Navigation Links

Current Weather

Trenton Mercer, Trenton, N.J.

For information only: do not use for flight planning or navigation.
Latest weather
Observation time Sunday, September 20, 2020 2:53 AM EDT
Local time Sunday, September 20, 2020 4:05 AM EDT
Flight conditions Visual Meteorological Conditions
Winds
Wind direction North (360°)
Wind speed 6 mph
Visibility 10 mi.
Sky condition
Ceiling unlimited
Sky clear
Temperature 45°F
Dewpoint 35°F
Altimeter 30.39 in.Hg
Derived measurements
Relative humidity 68%
Wind chill 42°F
Density altitude -1158 ft.
Sea-level pressure 30.38 in.Hg
Remarks
Fully automated report.
Automated weather observing station with precipitation discriminator.
METAR KTTN 200653Z AUTO 36005KT 10SM CLR 07/02 A3039 RMK AO2 SLP287 T00720017

Settings

Location code

InnerDrive.Weather 4.0.6770.0 Release CLR 4.0.30319.42000
Copyright ©2018 Inner Drive Technology. All rights reserved. Portions Copyright ©1986-2018 David Braverman.

Find weather

Site navigation


Skip Navigation Links

Place info

Page info

PayPal - The safer, easier way to pay online!

Return home.

Copyright ©2020 Inner Drive Technology. Purveyors of fine, hand-crafted computer software. Page printed 2020-09-20T08:05:31 UTC.